sensor_id;sensor_type;location;lat;lon;timestamp;P1;durP1;ratioP1;P2;durP2;ratioP2
18947;SDS011;9607;51.600;7.558;2023-02-17T00:01:09;29.35;;;22.45;;
18947;SDS011;9607;51.600;7.558;2023-02-17T00:03:37;32.08;;;22.33;;
18947;SDS011;9607;51.600;7.558;2023-02-17T00:06:04;27.77;;;21.35;;
18947;SDS011;9607;51.600;7.558;2023-02-17T00:08:33;28.27;;;21.17;;
18947;SDS011;9607;51.600;7.558;2023-02-17T00:11:00;28.08;;;21.50;;
18947;SDS011;9607;51.600;7.558;2023-02-17T00:13:27;24.77;;;19.92;;
18947;SDS011;9607;51.600;7.558;2023-02-17T00:15:54;29.75;;;21.42;;
18947;SDS011;9607;51.600;7.558;2023-02-17T00:18:21;26.65;;;21.05;;
18947;SDS011;9607;51.600;7.558;2023-02-17T00:20:48;23.60;;;19.88;;
18947;SDS011;9607;51.600;7.558;2023-02-17T00:23:15;32.70;;;20.90;;
18947;SDS011;9607;51.600;7.558;2023-02-17T00:25:43;26.90;;;19.67;;
18947;SDS011;9607;51.600;7.558;2023-02-17T00:28:10;29.42;;;20.83;;
18947;SDS011;9607;51.600;7.558;2023-02-17T00:30:37;28.15;;;19.85;;
18947;SDS011;9607;51.600;7.558;2023-02-17T00:33:04;21.83;;;18.13;;
18947;SDS011;9607;51.600;7.558;2023-02-17T00:35:31;23.70;;;18.58;;
18947;SDS011;9607;51.600;7.558;2023-02-17T00:37:58;26.10;;;19.05;;
18947;SDS011;9607;51.600;7.558;2023-02-17T00:40:25;21.88;;;17.85;;
18947;SDS011;9607;51.600;7.558;2023-02-17T00:42:54;23.70;;;17.20;;
18947;SDS011;9607;51.600;7.558;2023-02-17T00:45:21;27.92;;;19.40;;
18947;SDS011;9607;51.600;7.558;2023-02-17T00:47:48;24.42;;;16.83;;
18947;SDS011;9607;51.600;7.558;2023-02-17T00:50:15;24.77;;;17.88;;
18947;SDS011;9607;51.600;7.558;2023-02-17T00:52:42;22.58;;;17.17;;
18947;SDS011;9607;51.600;7.558;2023-02-17T00:55:09;22.40;;;17.35;;
18947;SDS011;9607;51.600;7.558;2023-02-17T00:57:36;20.98;;;16.00;;
18947;SDS011;9607;51.600;7.558;2023-02-17T01:00:04;23.73;;;16.30;;
18947;SDS011;9607;51.600;7.558;2023-02-17T01:02:33;20.30;;;15.90;;
18947;SDS011;9607;51.600;7.558;2023-02-17T01:05:00;23.27;;;16.15;;
18947;SDS011;9607;51.600;7.558;2023-02-17T01:07:27;22.73;;;16.33;;
18947;SDS011;9607;51.600;7.558;2023-02-17T01:09:54;21.55;;;15.85;;
18947;SDS011;9607;51.600;7.558;2023-02-17T01:12:20;21.40;;;14.90;;
18947;SDS011;9607;51.600;7.558;2023-02-17T01:14:47;23.67;;;15.30;;
18947;SDS011;9607;51.600;7.558;2023-02-17T01:17:15;18.70;;;14.85;;
18947;SDS011;9607;51.600;7.558;2023-02-17T01:19:42;20.55;;;15.48;;
18947;SDS011;9607;51.600;7.558;2023-02-17T01:22:09;20.15;;;15.32;;
18947;SDS011;9607;51.600;7.558;2023-02-17T01:24:37;20.58;;;15.70;;
18947;SDS011;9607;51.600;7.558;2023-02-17T01:27:03;20.60;;;15.80;;
18947;SDS011;9607;51.600;7.558;2023-02-17T01:29:30;21.45;;;15.55;;
18947;SDS011;9607;51.600;7.558;2023-02-17T01:31:57;20.38;;;14.77;;
18947;SDS011;9607;51.600;7.558;2023-02-17T01:34:25;17.95;;;13.15;;
18947;SDS011;9607;51.600;7.558;2023-02-17T01:36:52;18.42;;;14.63;;
18947;SDS011;9607;51.600;7.558;2023-02-17T01:39:19;18.80;;;14.75;;
18947;SDS011;9607;51.600;7.558;2023-02-17T01:41:46;17.73;;;14.25;;
18947;SDS011;9607;51.600;7.558;2023-02-17T01:44:14;19.73;;;13.52;;
18947;SDS011;9607;51.600;7.558;2023-02-17T01:46:44;20.05;;;14.45;;
18947;SDS011;9607;51.600;7.558;2023-02-17T01:49:13;17.55;;;15.10;;
18947;SDS011;9607;51.600;7.558;2023-02-17T01:51:51;18.42;;;15.23;;
18947;SDS011;9607;51.600;7.558;2023-02-17T01:54:23;17.77;;;14.43;;
18947;SDS011;9607;51.600;7.558;2023-02-17T01:56:53;21.10;;;14.52;;
18947;SDS011;9607;51.600;7.558;2023-02-17T01:59:23;19.58;;;14.27;;
18947;SDS011;9607;51.600;7.558;2023-02-17T02:01:51;17.65;;;14.60;;
18947;SDS011;9607;51.600;7.558;2023-02-17T02:04:21;18.80;;;15.13;;
18947;SDS011;9607;51.600;7.558;2023-02-17T02:06:52;17.48;;;13.75;;
18947;SDS011;9607;51.600;7.558;2023-02-17T02:09:20;19.83;;;15.57;;
18947;SDS011;9607;51.600;7.558;2023-02-17T02:11:51;18.55;;;14.60;;
18947;SDS011;9607;51.600;7.558;2023-02-17T02:14:18;18.35;;;14.65;;
18947;SDS011;9607;51.600;7.558;2023-02-17T02:16:50;22.98;;;15.63;;
18947;SDS011;9607;51.600;7.558;2023-02-17T02:19:41;22.42;;;14.68;;
18947;SDS011;9607;51.600;7.558;2023-02-17T02:22:33;20.80;;;15.35;;
18947;SDS011;9607;51.600;7.558;2023-02-17T02:25:28;17.27;;;14.52;;
18947;SDS011;9607;51.600;7.558;2023-02-17T02:28:13;20.33;;;16.20;;
18947;SDS011;9607;51.600;7.558;2023-02-17T02:30:59;20.10;;;15.18;;
18947;SDS011;9607;51.600;7.558;2023-02-17T02:33:39;20.80;;;15.50;;
18947;SDS011;9607;51.600;7.558;2023-02-17T02:36:09;20.75;;;16.23;;
18947;SDS011;9607;51.600;7.558;2023-02-17T02:38:40;20.58;;;15.73;;
18947;SDS011;9607;51.600;7.558;2023-02-17T02:41:10;19.58;;;16.13;;
18947;SDS011;9607;51.600;7.558;2023-02-17T02:43:42;19.67;;;15.18;;
18947;SDS011;9607;51.600;7.558;2023-02-17T02:46:09;20.73;;;15.57;;
18947;SDS011;9607;51.600;7.558;2023-02-17T02:48:37;18.27;;;15.02;;
18947;SDS011;9607;51.600;7.558;2023-02-17T02:51:10;19.17;;;15.32;;
18947;SDS011;9607;51.600;7.558;2023-02-17T02:53:57;16.38;;;14.18;;
18947;SDS011;9607;51.600;7.558;2023-02-17T02:56:44;17.23;;;14.20;;
18947;SDS011;9607;51.600;7.558;2023-02-17T02:59:28;18.90;;;15.05;;
18947;SDS011;9607;51.600;7.558;2023-02-17T03:02:05;18.00;;;15.55;;
18947;SDS011;9607;51.600;7.558;2023-02-17T03:04:41;18.80;;;15.77;;
18947;SDS011;9607;51.600;7.558;2023-02-17T03:07:16;18.77;;;14.98;;
18947;SDS011;9607;51.600;7.558;2023-02-17T03:09:48;19.27;;;16.33;;
18947;SDS011;9607;51.600;7.558;2023-02-17T03:12:16;19.00;;;15.88;;
18947;SDS011;9607;51.600;7.558;2023-02-17T03:14:43;18.30;;;16.25;;
18947;SDS011;9607;51.600;7.558;2023-02-17T03:17:12;18.40;;;14.55;;
18947;SDS011;9607;51.600;7.558;2023-02-17T03:19:40;18.02;;;14.90;;
18947;SDS011;9607;51.600;7.558;2023-02-17T03:22:10;18.35;;;15.02;;
18947;SDS011;9607;51.600;7.558;2023-02-17T03:24:42;19.10;;;14.20;;
18947;SDS011;9607;51.600;7.558;2023-02-17T03:27:09;17.27;;;14.50;;
18947;SDS011;9607;51.600;7.558;2023-02-17T03:29:36;18.85;;;14.07;;
18947;SDS011;9607;51.600;7.558;2023-02-17T03:32:03;17.05;;;14.25;;
18947;SDS011;9607;51.600;7.558;2023-02-17T03:34:31;20.25;;;14.15;;
18947;SDS011;9607;51.600;7.558;2023-02-17T03:36:59;14.95;;;13.15;;
18947;SDS011;9607;51.600;7.558;2023-02-17T03:39:25;18.63;;;13.77;;
18947;SDS011;9607;51.600;7.558;2023-02-17T03:41:52;17.33;;;12.40;;
18947;SDS011;9607;51.600;7.558;2023-02-17T03:44:19;13.57;;;12.13;;
18947;SDS011;9607;51.600;7.558;2023-02-17T03:46:46;14.65;;;11.73;;
18947;SDS011;9607;51.600;7.558;2023-02-17T03:49:13;13.85;;;11.65;;
18947;SDS011;9607;51.600;7.558;2023-02-17T03:51:40;13.30;;;11.90;;
18947;SDS011;9607;51.600;7.558;2023-02-17T03:54:08;14.60;;;11.95;;
18947;SDS011;9607;51.600;7.558;2023-02-17T03:56:35;15.13;;;12.10;;
18947;SDS011;9607;51.600;7.558;2023-02-17T03:59:02;14.30;;;11.30;;
18947;SDS011;9607;51.600;7.558;2023-02-17T04:01:29;12.00;;;10.80;;
18947;SDS011;9607;51.600;7.558;2023-02-17T04:03:56;12.20;;;10.52;;
18947;SDS011;9607;51.600;7.558;2023-02-17T04:06:22;12.70;;;10.45;;
18947;SDS011;9607;51.600;7.558;2023-02-17T04:08:49;11.25;;;10.15;;
18947;SDS011;9607;51.600;7.558;2023-02-17T04:11:18;13.20;;;10.85;;
18947;SDS011;9607;51.600;7.558;2023-02-17T04:13:44;16.52;;;11.05;;
18947;SDS011;9607;51.600;7.558;2023-02-17T04:16:11;12.77;;;10.60;;
18947;SDS011;9607;51.600;7.558;2023-02-17T04:18:38;10.90;;;9.70;;
18947;SDS011;9607;51.600;7.558;2023-02-17T04:21:05;13.85;;;10.90;;
18947;SDS011;9607;51.600;7.558;2023-02-17T04:23:33;11.73;;;10.52;;
18947;SDS011;9607;51.600;7.558;2023-02-17T04:26:00;11.60;;;9.18;;
18947;SDS011;9607;51.600;7.558;2023-02-17T04:28:28;11.35;;;9.43;;
18947;SDS011;9607;51.600;7.558;2023-02-17T04:30:55;10.73;;;9.30;;
18947;SDS011;9607;51.600;7.558;2023-02-17T04:33:23;11.68;;;9.52;;
18947;SDS011;9607;51.600;7.558;2023-02-17T04:35:50;13.82;;;10.35;;
18947;SDS011;9607;51.600;7.558;2023-02-17T04:38:17;11.50;;;10.13;;
18947;SDS011;9607;51.600;7.558;2023-02-17T04:40:44;10.70;;;9.40;;
18947;SDS011;9607;51.600;7.558;2023-02-17T04:43:11;11.13;;;9.55;;
18947;SDS011;9607;51.600;7.558;2023-02-17T04:45:39;9.90;;;8.90;;
18947;SDS011;9607;51.600;7.558;2023-02-17T04:48:06;9.85;;;8.85;;
18947;SDS011;9607;51.600;7.558;2023-02-17T04:50:33;9.95;;;8.70;;
18947;SDS011;9607;51.600;7.558;2023-02-17T04:52:59;9.20;;;8.30;;
18947;SDS011;9607;51.600;7.558;2023-02-17T04:55:26;11.13;;;8.82;;
18947;SDS011;9607;51.600;7.558;2023-02-17T04:57:54;8.50;;;7.68;;
18947;SDS011;9607;51.600;7.558;2023-02-17T05:00:20;10.00;;;8.65;;
18947;SDS011;9607;51.600;7.558;2023-02-17T05:02:49;10.95;;;8.77;;
18947;SDS011;9607;51.600;7.558;2023-02-17T05:05:16;10.05;;;8.27;;
18947;SDS011;9607;51.600;7.558;2023-02-17T05:07:43;11.20;;;8.77;;
18947;SDS011;9607;51.600;7.558;2023-02-17T05:10:10;9.88;;;8.45;;
18947;SDS011;9607;51.600;7.558;2023-02-17T05:12:38;9.38;;;8.32;;
18947;SDS011;9607;51.600;7.558;2023-02-17T05:15:05;9.25;;;8.10;;
18947;SDS011;9607;51.600;7.558;2023-02-17T05:17:33;9.00;;;8.10;;
18947;SDS011;9607;51.600;7.558;2023-02-17T05:20:02;9.13;;;8.02;;
18947;SDS011;9607;51.600;7.558;2023-02-17T05:22:33;9.93;;;8.15;;
18947;SDS011;9607;51.600;7.558;2023-02-17T05:25:00;8.55;;;7.72;;
18947;SDS011;9607;51.600;7.558;2023-02-17T05:27:27;8.18;;;7.38;;
18947;SDS011;9607;51.600;7.558;2023-02-17T05:29:54;9.18;;;7.30;;
18947;SDS011;9607;51.600;7.558;2023-02-17T05:32:21;8.15;;;7.30;;
18947;SDS011;9607;51.600;7.558;2023-02-17T05:34:49;8.30;;;7.43;;
18947;SDS011;9607;51.600;7.558;2023-02-17T05:37:17;8.55;;;7.65;;
18947;SDS011;9607;51.600;7.558;2023-02-17T05:39:44;9.18;;;8.00;;
18947;SDS011;9607;51.600;7.558;2023-02-17T05:42:11;8.85;;;7.95;;
18947;SDS011;9607;51.600;7.558;2023-02-17T05:44:37;8.77;;;7.60;;
18947;SDS011;9607;51.600;7.558;2023-02-17T05:47:04;9.27;;;8.10;;
18947;SDS011;9607;51.600;7.558;2023-02-17T05:49:31;8.95;;;7.68;;
18947;SDS011;9607;51.600;7.558;2023-02-17T05:51:58;8.63;;;7.72;;
18947;SDS011;9607;51.600;7.558;2023-02-17T05:54:26;8.77;;;7.47;;
18947;SDS011;9607;51.600;7.558;2023-02-17T05:56:53;9.30;;;8.30;;
18947;SDS011;9607;51.600;7.558;2023-02-17T05:59:20;9.30;;;7.78;;
18947;SDS011;9607;51.600;7.558;2023-02-17T06:01:46;9.48;;;8.48;;
18947;SDS011;9607;51.600;7.558;2023-02-17T06:04:13;10.30;;;8.43;;
18947;SDS011;9607;51.600;7.558;2023-02-17T06:06:40;8.80;;;7.50;;
18947;SDS011;9607;51.600;7.558;2023-02-17T06:09:07;7.93;;;7.13;;
18947;SDS011;9607;51.600;7.558;2023-02-17T06:11:35;7.60;;;6.90;;
18947;SDS011;9607;51.600;7.558;2023-02-17T06:14:02;7.78;;;6.97;;
18947;SDS011;9607;51.600;7.558;2023-02-17T06:16:29;9.85;;;8.80;;
18947;SDS011;9607;51.600;7.558;2023-02-17T06:18:56;8.93;;;7.75;;
18947;SDS011;9607;51.600;7.558;2023-02-17T06:21:24;9.65;;;8.05;;
18947;SDS011;9607;51.600;7.558;2023-02-17T06:23:51;9.63;;;8.63;;
18947;SDS011;9607;51.600;7.558;2023-02-17T06:26:18;10.68;;;8.77;;
18947;SDS011;9607;51.600;7.558;2023-02-17T06:28:47;10.05;;;9.05;;
18947;SDS011;9607;51.600;7.558;2023-02-17T06:31:14;12.02;;;9.43;;
18947;SDS011;9607;51.600;7.558;2023-02-17T06:33:40;10.27;;;9.18;;
18947;SDS011;9607;51.600;7.558;2023-02-17T06:36:08;9.95;;;8.95;;
18947;SDS011;9607;51.600;7.558;2023-02-17T06:38:35;11.27;;;8.45;;
18947;SDS011;9607;51.600;7.558;2023-02-17T06:41:01;10.88;;;8.13;;
18947;SDS011;9607;51.600;7.558;2023-02-17T06:43:28;9.13;;;8.23;;
18947;SDS011;9607;51.600;7.558;2023-02-17T06:45:57;8.77;;;7.80;;
18947;SDS011;9607;51.600;7.558;2023-02-17T06:48:23;8.73;;;7.82;;
18947;SDS011;9607;51.600;7.558;2023-02-17T06:50:50;7.95;;;7.15;;
18947;SDS011;9607;51.600;7.558;2023-02-17T06:53:17;11.77;;;9.02;;
18947;SDS011;9607;51.600;7.558;2023-02-17T06:55:44;11.23;;;8.48;;
18947;SDS011;9607;51.600;7.558;2023-02-17T06:58:11;10.05;;;8.85;;
18947;SDS011;9607;51.600;7.558;2023-02-17T07:00:37;10.13;;;9.02;;
18947;SDS011;9607;51.600;7.558;2023-02-17T07:03:06;10.27;;;8.98;;
18947;SDS011;9607;51.600;7.558;2023-02-17T07:05:33;10.52;;;9.32;;
18947;SDS011;9607;51.600;7.558;2023-02-17T07:08:01;10.43;;;9.30;;
18947;SDS011;9607;51.600;7.558;2023-02-17T07:10:30;11.77;;;9.07;;
18947;SDS011;9607;51.600;7.558;2023-02-17T07:12:57;12.20;;;9.25;;
18947;SDS011;9607;51.600;7.558;2023-02-17T07:15:24;11.25;;;9.73;;
18947;SDS011;9607;51.600;7.558;2023-02-17T07:17:51;9.38;;;8.38;;
18947;SDS011;9607;51.600;7.558;2023-02-17T07:20:19;10.07;;;8.98;;
18947;SDS011;9607;51.600;7.558;2023-02-17T07:22:46;11.70;;;9.40;;
18947;SDS011;9607;51.600;7.558;2023-02-17T07:25:13;11.43;;;10.02;;
18947;SDS011;9607;51.600;7.558;2023-02-17T07:27:40;13.98;;;11.10;;
18947;SDS011;9607;51.600;7.558;2023-02-17T07:30:07;11.90;;;10.10;;
18947;SDS011;9607;51.600;7.558;2023-02-17T07:32:34;12.05;;;10.57;;
18947;SDS011;9607;51.600;7.558;2023-02-17T07:35:01;13.10;;;10.60;;
18947;SDS011;9607;51.600;7.558;2023-02-17T07:37:29;13.02;;;11.55;;
18947;SDS011;9607;51.600;7.558;2023-02-17T07:39:56;13.20;;;11.45;;
18947;SDS011;9607;51.600;7.558;2023-02-17T07:42:23;13.15;;;11.40;;
18947;SDS011;9607;51.600;7.558;2023-02-17T07:44:52;11.75;;;10.55;;
18947;SDS011;9607;51.600;7.558;2023-02-17T07:47:18;12.55;;;11.15;;
18947;SDS011;9607;51.600;7.558;2023-02-17T07:49:45;12.63;;;10.68;;
18947;SDS011;9607;51.600;7.558;2023-02-17T07:52:12;13.57;;;10.80;;
18947;SDS011;9607;51.600;7.558;2023-02-17T07:54:42;11.23;;;10.02;;
18947;SDS011;9607;51.600;7.558;2023-02-17T07:57:09;11.88;;;10.35;;
18947;SDS011;9607;51.600;7.558;2023-02-17T07:59:36;11.73;;;10.30;;
18947;SDS011;9607;51.600;7.558;2023-02-17T08:02:02;11.95;;;10.65;;
18947;SDS011;9607;51.600;7.558;2023-02-17T08:04:29;11.82;;;9.45;;
18947;SDS011;9607;51.600;7.558;2023-02-17T08:06:57;11.77;;;9.82;;
18947;SDS011;9607;51.600;7.558;2023-02-17T08:09:24;11.60;;;10.40;;
18947;SDS011;9607;51.600;7.558;2023-02-17T08:12:10;11.55;;;10.35;;
18947;SDS011;9607;51.600;7.558;2023-02-17T08:14:59;14.20;;;10.98;;
18947;SDS011;9607;51.600;7.558;2023-02-17T08:17:26;10.63;;;9.55;;
18947;SDS011;9607;51.600;7.558;2023-02-17T08:19:53;11.25;;;9.98;;
18947;SDS011;9607;51.600;7.558;2023-02-17T08:22:20;11.23;;;10.02;;
18947;SDS011;9607;51.600;7.558;2023-02-17T08:24:47;10.65;;;8.90;;
18947;SDS011;9607;51.600;7.558;2023-02-17T08:27:16;10.75;;;9.40;;
18947;SDS011;9607;51.600;7.558;2023-02-17T08:29:44;10.18;;;9.18;;
18947;SDS011;9607;51.600;7.558;2023-02-17T08:32:11;10.95;;;9.63;;
18947;SDS011;9607;51.600;7.558;2023-02-17T08:34:38;13.20;;;9.48;;
18947;SDS011;9607;51.600;7.558;2023-02-17T08:37:06;10.85;;;8.98;;
18947;SDS011;9607;51.600;7.558;2023-02-17T08:39:33;10.90;;;9.80;;
18947;SDS011;9607;51.600;7.558;2023-02-17T08:42:01;9.38;;;8.48;;
18947;SDS011;9607;51.600;7.558;2023-02-17T08:44:32;9.45;;;8.27;;
18947;SDS011;9607;51.600;7.558;2023-02-17T08:47:01;9.13;;;8.07;;
18947;SDS011;9607;51.600;7.558;2023-02-17T08:49:29;8.98;;;8.00;;
18947;SDS011;9607;51.600;7.558;2023-02-17T08:51:56;10.40;;;8.35;;
18947;SDS011;9607;51.600;7.558;2023-02-17T08:54:23;9.13;;;8.00;;
18947;SDS011;9607;51.600;7.558;2023-02-17T08:56:50;8.75;;;7.60;;
18947;SDS011;9607;51.600;7.558;2023-02-17T08:59:17;8.25;;;7.45;;
18947;SDS011;9607;51.600;7.558;2023-02-17T09:01:45;7.60;;;6.88;;
18947;SDS011;9607;51.600;7.558;2023-02-17T09:04:13;8.50;;;7.32;;
18947;SDS011;9607;51.600;7.558;2023-02-17T09:06:44;7.80;;;7.10;;
18947;SDS011;9607;51.600;7.558;2023-02-17T09:09:13;8.88;;;7.72;;
18947;SDS011;9607;51.600;7.558;2023-02-17T09:11:41;9.07;;;7.10;;
18947;SDS011;9607;51.600;7.558;2023-02-17T09:14:09;9.65;;;7.50;;
18947;SDS011;9607;51.600;7.558;2023-02-17T09:16:36;7.88;;;7.07;;
18947;SDS011;9607;51.600;7.558;2023-02-17T09:19:04;7.78;;;6.97;;
18947;SDS011;9607;51.600;7.558;2023-02-17T09:21:31;8.05;;;7.20;;
18947;SDS011;9607;51.600;7.558;2023-02-17T09:23:59;8.20;;;6.85;;
18947;SDS011;9607;51.600;7.558;2023-02-17T09:26:26;7.32;;;6.22;;
18947;SDS011;9607;51.600;7.558;2023-02-17T09:28:52;7.72;;;6.55;;
18947;SDS011;9607;51.600;7.558;2023-02-17T09:31:20;8.65;;;6.20;;
18947;SDS011;9607;51.600;7.558;2023-02-17T09:33:48;7.00;;;6.20;;
18947;SDS011;9607;51.600;7.558;2023-02-17T09:36:17;7.47;;;5.95;;
18947;SDS011;9607;51.600;7.558;2023-02-17T09:38:47;6.60;;;5.78;;
18947;SDS011;9607;51.600;7.558;2023-02-17T09:41:15;7.80;;;6.07;;
18947;SDS011;9607;51.600;7.558;2023-02-17T09:43:44;7.45;;;5.93;;
18947;SDS011;9607;51.600;7.558;2023-02-17T09:46:13;6.40;;;5.75;;
18947;SDS011;9607;51.600;7.558;2023-02-17T09:48:43;6.85;;;5.35;;
18947;SDS011;9607;51.600;7.558;2023-02-17T09:51:14;6.18;;;5.55;;
18947;SDS011;9607;51.600;7.558;2023-02-17T09:53:49;5.95;;;5.35;;
18947;SDS011;9607;51.600;7.558;2023-02-17T09:56:21;5.82;;;5.28;;
18947;SDS011;9607;51.600;7.558;2023-02-17T09:58:56;7.38;;;6.10;;
18947;SDS011;9607;51.600;7.558;2023-02-17T10:01:27;6.82;;;6.13;;
18947;SDS011;9607;51.600;7.558;2023-02-17T10:03:58;8.70;;;6.30;;
18947;SDS011;9607;51.600;7.558;2023-02-17T10:06:32;6.50;;;5.70;;
18947;SDS011;9607;51.600;7.558;2023-02-17T10:09:03;6.53;;;5.85;;
18947;SDS011;9607;51.600;7.558;2023-02-17T10:11:35;7.70;;;6.40;;
18947;SDS011;9607;51.600;7.558;2023-02-17T10:14:05;7.85;;;5.78;;
18947;SDS011;9607;51.600;7.558;2023-02-17T10:16:38;8.50;;;6.60;;
18947;SDS011;9607;51.600;7.558;2023-02-17T10:19:11;8.15;;;7.07;;
18947;SDS011;9607;51.600;7.558;2023-02-17T10:21:47;7.72;;;7.03;;
18947;SDS011;9607;51.600;7.558;2023-02-17T10:24:22;9.48;;;8.43;;
18947;SDS011;9607;51.600;7.558;2023-02-17T10:26:53;8.38;;;7.57;;
18947;SDS011;9607;51.600;7.558;2023-02-17T10:29:35;8.07;;;7.32;;
18947;SDS011;9607;51.600;7.558;2023-02-17T10:32:14;9.65;;;7.57;;
18947;SDS011;9607;51.600;7.558;2023-02-17T10:34:49;9.00;;;7.15;;
18947;SDS011;9607;51.600;7.558;2023-02-17T10:37:32;9.05;;;8.10;;
18947;SDS011;9607;51.600;7.558;2023-02-17T10:40:07;7.88;;;7.07;;
18947;SDS011;9607;51.600;7.558;2023-02-17T10:42:38;7.47;;;6.78;;
18947;SDS011;9607;51.600;7.558;2023-02-17T10:45:07;8.63;;;7.80;;
18947;SDS011;9607;51.600;7.558;2023-02-17T10:47:40;8.27;;;7.38;;
18947;SDS011;9607;51.600;7.558;2023-02-17T10:50:13;9.05;;;8.18;;
18947;SDS011;9607;51.600;7.558;2023-02-17T10:52:45;9.15;;;8.35;;
18947;SDS011;9607;51.600;7.558;2023-02-17T10:55:15;8.10;;;7.30;;
18947;SDS011;9607;51.600;7.558;2023-02-17T10:57:46;8.32;;;7.53;;
18947;SDS011;9607;51.600;7.558;2023-02-17T11:00:16;7.75;;;7.05;;
18947;SDS011;9607;51.600;7.558;2023-02-17T11:02:44;7.78;;;7.07;;
18947;SDS011;9607;51.600;7.558;2023-02-17T11:05:19;9.13;;;8.00;;
18947;SDS011;9607;51.600;7.558;2023-02-17T11:07:51;9.57;;;8.68;;
18947;SDS011;9607;51.600;7.558;2023-02-17T11:10:21;9.18;;;8.25;;
18947;SDS011;9607;51.600;7.558;2023-02-17T11:12:52;9.77;;;8.40;;
18947;SDS011;9607;51.600;7.558;2023-02-17T11:15:21;9.38;;;8.48;;
18947;SDS011;9607;51.600;7.558;2023-02-17T11:17:50;10.48;;;9.27;;
18947;SDS011;9607;51.600;7.558;2023-02-17T11:20:27;9.82;;;8.93;;
18947;SDS011;9607;51.600;7.558;2023-02-17T11:23:01;10.13;;;9.23;;
18947;SDS011;9607;51.600;7.558;2023-02-17T11:25:31;9.88;;;8.48;;
18947;SDS011;9607;51.600;7.558;2023-02-17T11:28:00;10.50;;;7.95;;
18947;SDS011;9607;51.600;7.558;2023-02-17T11:30:30;9.30;;;8.13;;
18947;SDS011;9607;51.600;7.558;2023-02-17T11:32:58;9.38;;;8.45;;
18947;SDS011;9607;51.600;7.558;2023-02-17T11:35:42;8.48;;;7.78;;
18947;SDS011;9607;51.600;7.558;2023-02-17T11:38:14;9.82;;;8.90;;
18947;SDS011;9607;51.600;7.558;2023-02-17T11:40:52;9.32;;;8.43;;
18947;SDS011;9607;51.600;7.558;2023-02-17T11:43:23;8.30;;;7.50;;
18947;SDS011;9607;51.600;7.558;2023-02-17T11:46:05;9.52;;;8.63;;
18947;SDS011;9607;51.600;7.558;2023-02-17T11:51:33;8.35;;;7.55;;
18947;SDS011;9607;51.600;7.558;2023-02-17T11:54:10;8.18;;;7.10;;
18947;SDS011;9607;51.600;7.558;2023-02-17T11:56:43;7.72;;;6.93;;
18947;SDS011;9607;51.600;7.558;2023-02-17T11:59:28;5.70;;;5.20;;
18947;SDS011;9607;51.600;7.558;2023-02-17T12:02:14;5.55;;;4.97;;
18947;SDS011;9607;51.600;7.558;2023-02-17T12:04:52;6.60;;;5.82;;
18947;SDS011;9607;51.600;7.558;2023-02-17T12:07:38;5.82;;;5.32;;
18947;SDS011;9607;51.600;7.558;2023-02-17T12:10:18;6.90;;;6.20;;
18947;SDS011;9607;51.600;7.558;2023-02-17T12:12:59;6.68;;;6.07;;
18947;SDS011;9607;51.600;7.558;2023-02-17T12:15:40;8.40;;;7.05;;
18947;SDS011;9607;51.600;7.558;2023-02-17T12:18:21;6.75;;;6.05;;
18947;SDS011;9607;51.600;7.558;2023-02-17T12:21:01;7.63;;;6.93;;
18947;SDS011;9607;51.600;7.558;2023-02-17T12:26:33;6.32;;;5.18;;
18947;SDS011;9607;51.600;7.558;2023-02-17T12:29:11;6.45;;;5.40;;
18947;SDS011;9607;51.600;7.558;2023-02-17T12:31:55;5.40;;;4.63;;
18947;SDS011;9607;51.600;7.558;2023-02-17T12:34:36;4.68;;;4.25;;
18947;SDS011;9607;51.600;7.558;2023-02-17T12:37:09;7.57;;;4.38;;
18947;SDS011;9607;51.600;7.558;2023-02-17T12:39:44;4.63;;;4.00;;
18947;SDS011;9607;51.600;7.558;2023-02-17T12:42:18;4.25;;;3.85;;
18947;SDS011;9607;51.600;7.558;2023-02-17T12:44:48;5.93;;;4.03;;
18947;SDS011;9607;51.600;7.558;2023-02-17T12:47:20;3.88;;;3.55;;
18947;SDS011;9607;51.600;7.558;2023-02-17T12:49:51;5.38;;;4.85;;
18947;SDS011;9607;51.600;7.558;2023-02-17T12:52:23;7.80;;;5.15;;
18947;SDS011;9607;51.600;7.558;2023-02-17T12:54:53;6.35;;;4.50;;
18947;SDS011;9607;51.600;7.558;2023-02-17T12:57:26;5.03;;;4.40;;
18947;SDS011;9607;51.600;7.558;2023-02-17T12:59:59;4.40;;;4.00;;
18947;SDS011;9607;51.600;7.558;2023-02-17T13:02:28;6.53;;;4.15;;
18947;SDS011;9607;51.600;7.558;2023-02-17T13:04:56;5.53;;;4.22;;
18947;SDS011;9607;51.600;7.558;2023-02-17T13:07:32;6.00;;;3.90;;
18947;SDS011;9607;51.600;7.558;2023-02-17T13:10:15;4.60;;;3.97;;
18947;SDS011;9607;51.600;7.558;2023-02-17T13:12:55;4.32;;;3.63;;
18947;SDS011;9607;51.600;7.558;2023-02-17T13:15:27;6.00;;;3.95;;
18947;SDS011;9607;51.600;7.558;2023-02-17T13:17:57;4.15;;;3.75;;
18947;SDS011;9607;51.600;7.558;2023-02-17T13:20:36;4.25;;;3.85;;
18947;SDS011;9607;51.600;7.558;2023-02-17T13:23:10;4.70;;;3.45;;
18947;SDS011;9607;51.600;7.558;2023-02-17T13:25:39;5.20;;;3.97;;
18947;SDS011;9607;51.600;7.558;2023-02-17T13:28:18;4.28;;;3.35;;
18947;SDS011;9607;51.600;7.558;2023-02-17T13:33:44;3.58;;;3.15;;
18947;SDS011;9607;51.600;7.558;2023-02-17T13:36:14;6.30;;;3.38;;
18947;SDS011;9607;51.600;7.558;2023-02-17T13:38:55;3.97;;;3.17;;
18947;SDS011;9607;51.600;7.558;2023-02-17T13:41:25;4.43;;;3.33;;
18947;SDS011;9607;51.600;7.558;2023-02-17T13:43:54;6.07;;;3.10;;
18947;SDS011;9607;51.600;7.558;2023-02-17T13:46:22;3.50;;;2.85;;
18947;SDS011;9607;51.600;7.558;2023-02-17T13:48:59;5.10;;;3.08;;
18947;SDS011;9607;51.600;7.558;2023-02-17T13:51:29;6.05;;;4.55;;
18947;SDS011;9607;51.600;7.558;2023-02-17T13:54:03;5.30;;;4.80;;
18947;SDS011;9607;51.600;7.558;2023-02-17T13:56:31;6.28;;;5.63;;
18947;SDS011;9607;51.600;7.558;2023-02-17T13:59:06;5.15;;;4.65;;
18947;SDS011;9607;51.600;7.558;2023-02-17T14:01:35;6.82;;;4.88;;
18947;SDS011;9607;51.600;7.558;2023-02-17T14:04:15;9.07;;;4.80;;
18947;SDS011;9607;51.600;7.558;2023-02-17T14:06:45;7.13;;;5.78;;
18947;SDS011;9607;51.600;7.558;2023-02-17T14:09:18;8.02;;;7.22;;
18947;SDS011;9607;51.600;7.558;2023-02-17T14:11:47;8.45;;;7.65;;
18947;SDS011;9607;51.600;7.558;2023-02-17T14:14:15;7.07;;;6.32;;
18947;SDS011;9607;51.600;7.558;2023-02-17T14:16:42;6.50;;;5.78;;
18947;SDS011;9607;51.600;7.558;2023-02-17T14:19:10;7.97;;;5.75;;
18947;SDS011;9607;51.600;7.558;2023-02-17T14:21:40;5.38;;;4.88;;
18947;SDS011;9607;51.600;7.558;2023-02-17T14:24:21;4.53;;;3.72;;
18947;SDS011;9607;51.600;7.558;2023-02-17T14:26:54;4.90;;;4.50;;
18947;SDS011;9607;51.600;7.558;2023-02-17T14:29:23;5.57;;;5.00;;
18947;SDS011;9607;51.600;7.558;2023-02-17T14:31:51;5.32;;;4.72;;
18947;SDS011;9607;51.600;7.558;2023-02-17T14:34:23;9.95;;;5.97;;
18947;SDS011;9607;51.600;7.558;2023-02-17T14:36:51;6.22;;;5.53;;
18947;SDS011;9607;51.600;7.558;2023-02-17T14:39:18;6.53;;;5.93;;
18947;SDS011;9607;51.600;7.558;2023-02-17T14:41:45;6.60;;;6.03;;
18947;SDS011;9607;51.600;7.558;2023-02-17T14:44:12;7.03;;;6.32;;
18947;SDS011;9607;51.600;7.558;2023-02-17T14:46:40;8.32;;;7.53;;
18947;SDS011;9607;51.600;7.558;2023-02-17T14:49:07;7.47;;;6.70;;
18947;SDS011;9607;51.600;7.558;2023-02-17T14:51:35;8.63;;;7.82;;
18947;SDS011;9607;51.600;7.558;2023-02-17T14:54:07;9.02;;;7.80;;
18947;SDS011;9607;51.600;7.558;2023-02-17T14:56:42;10.15;;;8.65;;
18947;SDS011;9607;51.600;7.558;2023-02-17T14:59:12;9.55;;;8.13;;
18947;SDS011;9607;51.600;7.558;2023-02-17T15:01:40;9.05;;;8.15;;
18947;SDS011;9607;51.600;7.558;2023-02-17T15:04:07;10.68;;;9.57;;
18947;SDS011;9607;51.600;7.558;2023-02-17T15:06:35;10.50;;;9.40;;
18947;SDS011;9607;51.600;7.558;2023-02-17T15:09:08;11.32;;;9.45;;
18947;SDS011;9607;51.600;7.558;2023-02-17T15:11:36;12.43;;;10.98;;
18947;SDS011;9607;51.600;7.558;2023-02-17T15:14:08;10.98;;;9.77;;
18947;SDS011;9607;51.600;7.558;2023-02-17T15:16:40;11.13;;;9.93;;